Terminal Aerodrome Forecast
Issued by NWS Sterling, VA

Current Version | Previous Version | Text Only | Print | Product List | Glossary On
Versions: 1 2 3 4 5 6 7 8 9 10 11 12 13
000
FTUS41 KLWX 211700 RRA
TAFMRB
TAF
KMRB 211743Z 2118/2218 15006KT P6SM SKC
     FM220900 00000KT P6SM BKN250
     FM221400 23007KT P6SM OVC090
     FM221600 24008KT P6SM -SHRA OVC050=

USA.gov is the U.S. government's official web portal to all federal, state and local government web resources and services.